createdAt,value
2016-05-23T00:00:02.197Z,16.12
2016-05-23T00:00:12.356Z,16.09
2016-05-23T00:00:22.372Z,16.11
2016-05-23T00:00:32.372Z,16.12
2016-05-23T00:00:42.215Z,16.05
2016-05-23T00:00:52.387Z,16.11
2016-05-23T00:01:02.387Z,16.15
2016-05-23T00:01:12.390Z,16.11
2016-05-23T00:01:22.390Z,16.08
2016-05-23T00:01:32.422Z,16.14
2016-05-23T00:01:42.406Z,16.12
2016-05-23T00:01:52.812Z,16.11
2016-05-23T00:02:02.422Z,16.02
2016-05-23T00:02:12.268Z,16.11
2016-05-23T00:02:22.456Z,16.11
2016-05-23T00:02:32.440Z,16.14
2016-05-23T00:02:42.440Z,16.12
2016-05-23T00:02:52.456Z,16.11
2016-05-23T00:03:02.456Z,16.07
2016-05-23T00:03:12.458Z,16.04
2016-05-23T00:03:22.723Z,16.05
2016-05-23T00:03:32.598Z,16.02
2016-05-23T00:03:42.473Z,16.11
2016-05-23T00:03:52.333Z,16.05
2016-05-23T00:04:02.489Z,16.15
2016-05-23T00:04:12.508Z,16
2016-05-23T00:04:22.508Z,16.07
2016-05-23T00:04:32.508Z,16.09
2016-05-23T00:04:42.508Z,16.09
2016-05-23T00:04:52.523Z,16.08
2016-05-23T00:05:02.523Z,16.15
2016-05-23T00:05:12.526Z,16.11
2016-05-23T00:05:22.526Z,16.05
2016-05-23T00:05:32.542Z,16.11
2016-05-23T00:05:42.542Z,16.09
2016-05-23T00:05:52.386Z,16.14
2016-05-23T00:06:02.542Z,16.12
2016-05-23T00:06:12.560Z,16.08
2016-05-23T00:06:22.560Z,16.05
2016-05-23T00:06:32.575Z,15.94
2016-05-23T00:06:42.575Z,16.09
2016-05-23T00:06:52.591Z,16.04
2016-05-23T00:07:02.435Z,16
2016-05-23T00:07:12.594Z,16.11
2016-05-23T00:07:22.594Z,16.11
2016-05-23T00:07:32.609Z,16.04
2016-05-23T00:07:42.609Z,16.11
2016-05-23T00:07:52.609Z,16.08
2016-05-23T00:08:02.625Z,16.09
2016-05-23T00:08:12.472Z,16.08
2016-05-23T00:08:22.628Z,16.01
2016-05-23T00:08:32.644Z,16
2016-05-23T00:08:42.659Z,16.01
2016-05-23T00:08:52.644Z,16.05
2016-05-23T00:09:02.659Z,16.14
2016-05-23T00:09:12.662Z,16.09
2016-05-23T00:09:22.662Z,16.02
2016-05-23T00:09:32.678Z,15.96
2016-05-23T00:09:42.678Z,16.07
2016-05-23T00:09:52.678Z,16.07
2016-05-23T00:10:02.678Z,16.04
2016-05-23T00:10:12.696Z,16.07
2016-05-23T00:10:22.696Z,16.14
2016-05-23T00:10:32.711Z,16.11
2016-05-23T00:10:42.711Z,16.11
2016-05-23T00:10:52.711Z,16.09
2016-05-23T00:11:02.711Z,16.08
2016-05-23T00:11:12.714Z,16.02
2016-05-23T00:11:22.730Z,16.05
2016-05-23T00:11:32.730Z,16.05
2016-05-23T00:11:42.745Z,16.04
2016-05-23T00:11:52.761Z,16.12
2016-05-23T00:12:02.761Z,16.02
2016-05-23T00:12:12.764Z,16.05
2016-05-23T00:12:22.764Z,15.97
2016-05-23T00:12:32.780Z,15.94
2016-05-23T00:12:42.780Z,16.09
2016-05-23T00:12:52.780Z,16.02
2016-05-23T00:13:02.623Z,16.07
2016-05-23T00:13:12.797Z,16.04
2016-05-23T00:13:22.797Z,16.01
2016-05-23T00:13:32.797Z,16.02
2016-05-23T00:13:42.797Z,15.97
2016-05-23T00:13:52.829Z,16.11
2016-05-23T00:14:02.829Z,16.01
2016-05-23T00:14:12.831Z,16.09
2016-05-23T00:14:22.877Z,16.08
2016-05-23T00:14:32.674Z,16.04
2016-05-23T00:14:42.862Z,16.07
2016-05-23T00:14:52.971Z,15.97
2016-05-23T00:15:02.846Z,16.05
2016-05-23T00:15:12.849Z,16.09
2016-05-23T00:15:22.865Z,16.08
2016-05-23T00:15:32.880Z,16.02
2016-05-23T00:15:42.865Z,16
2016-05-23T00:15:52.880Z,16.11
2016-05-23T00:16:02.724Z,16.07
2016-05-23T00:16:12.900Z,16.01
2016-05-23T00:16:22.900Z,16
2016-05-23T00:16:32.900Z,16.01
2016-05-23T00:16:42.900Z,15.97
2016-05-23T00:16:52.916Z,16.05
2016-05-23T00:17:02.916Z,16.12
2016-05-23T00:17:12.918Z,16
2016-05-23T00:17:22.933Z,16
2016-05-23T00:17:32.933Z,16
2016-05-23T00:17:42.933Z,16
2016-05-23T00:17:52.949Z,16.07
2016-05-23T00:18:02.949Z,16.08
2016-05-23T00:18:12.951Z,16.09
2016-05-23T00:18:22.967Z,15.97
2016-05-23T00:18:32.998Z,16.01
2016-05-23T00:18:42.967Z,16.01
2016-05-23T00:18:52.967Z,16.05
2016-05-23T00:19:02.982Z,15.94
2016-05-23T00:19:12.986Z,16
2016-05-23T00:19:22.846Z,16
2016-05-23T00:19:33.002Z,16.02
2016-05-23T00:19:43.002Z,16.04
2016-05-23T00:19:53.017Z,16.01
2016-05-23T00:20:03.017Z,16
2016-05-23T00:20:13.019Z,16.02
2016-05-23T00:20:23.035Z,16.02
2016-05-23T00:20:33.035Z,16.07
2016-05-23T00:20:43.082Z,16.05
2016-05-23T00:20:53.441Z,16.04
2016-05-23T00:21:03.160Z,16.01
2016-05-23T00:21:13.429Z,16
2016-05-23T00:21:23.069Z,16
2016-05-23T00:21:33.069Z,16.04
2016-05-23T00:21:43.069Z,16.01
2016-05-23T00:21:53.069Z,15.97
2016-05-23T00:22:03.444Z,16
2016-05-23T00:22:13.087Z,15.96
2016-05-23T00:22:23.103Z,16
2016-05-23T00:22:33.103Z,15.97
2016-05-23T00:22:43.118Z,16.01
2016-05-23T00:22:53.118Z,16.01
2016-05-23T00:23:03.103Z,16.04
2016-05-23T00:23:13.138Z,16.02
2016-05-23T00:23:23.122Z,16
2016-05-23T00:23:33.138Z,16.04
2016-05-23T00:23:43.153Z,16
2016-05-23T00:23:53.153Z,15.96
2016-05-23T00:24:03.153Z,15.97
2016-05-23T00:24:13.155Z,16
2016-05-23T00:24:23.155Z,16.02
2016-05-23T00:24:33.171Z,16.07
2016-05-23T00:24:43.171Z,15.97
2016-05-23T00:24:53.171Z,16.02
2016-05-23T00:25:03.171Z,16
2016-05-23T00:25:13.220Z,16.04
2016-05-23T00:25:23.204Z,15.97
2016-05-23T00:25:33.204Z,16.01
2016-05-23T00:25:43.204Z,16
2016-05-23T00:25:53.204Z,15.97
2016-05-23T00:26:03.251Z,15.96
2016-05-23T00:26:13.224Z,15.96
2016-05-23T00:26:23.224Z,15.96
2016-05-23T00:26:33.224Z,16.01
2016-05-23T00:26:43.240Z,16.02
2016-05-23T00:26:53.240Z,16.01
2016-05-23T00:27:03.255Z,16.07
2016-05-23T00:27:13.256Z,16
2016-05-23T00:27:23.272Z,16
2016-05-23T00:27:33.256Z,15.97
2016-05-23T00:27:43.272Z,15.96
2016-05-23T00:27:53.272Z,16.02
2016-05-23T00:28:03.272Z,16.01
2016-05-23T00:28:13.307Z,16
2016-05-23T00:28:23.291Z,15.96
2016-05-23T00:28:33.307Z,16.02
2016-05-23T00:28:43.307Z,15.96
2016-05-23T00:28:53.151Z,16
2016-05-23T00:29:03.151Z,16.01
2016-05-23T00:29:13.340Z,16.01
2016-05-23T00:29:23.325Z,15.96
2016-05-23T00:29:33.325Z,16
2016-05-23T00:29:43.340Z,16
2016-05-23T00:29:53.200Z,15.97
2016-05-23T00:30:03.340Z,15.96
2016-05-23T00:30:13.390Z,16.12
2016-05-23T00:30:23.359Z,16.04
2016-05-23T00:30:33.359Z,16.04
2016-05-23T00:30:43.375Z,16.05
2016-05-23T00:30:53.375Z,16.04
2016-05-23T00:31:03.218Z,15.97
2016-05-23T00:31:13.378Z,16.05
2016-05-23T00:31:23.393Z,15.97
2016-05-23T00:31:33.409Z,16.07
2016-05-23T00:31:43.409Z,16.12
2016-05-23T00:31:53.409Z,16
2016-05-23T00:32:03.409Z,16.08
2016-05-23T00:32:13.426Z,16.12
2016-05-23T00:32:23.426Z,15.96
2016-05-23T00:32:33.426Z,16.07
2016-05-23T00:32:43.426Z,16.09
2016-05-23T00:32:53.442Z,16.09
2016-05-23T00:33:03.442Z,15.97
2016-05-23T00:33:13.445Z,16.02
2016-05-23T00:33:23.304Z,16.07
2016-05-23T00:33:33.304Z,16.01
2016-05-23T00:33:43.461Z,16.05
2016-05-23T00:33:53.476Z,16.04
2016-05-23T00:34:03.476Z,16.01
2016-05-23T00:34:13.495Z,16.04
2016-05-23T00:34:23.495Z,16.08
2016-05-23T00:34:33.495Z,16.04
2016-05-23T00:34:43.495Z,16
2016-05-23T00:34:53.682Z,16.11
2016-05-23T00:35:03.511Z,16.09
2016-05-23T00:35:13.528Z,16.02
2016-05-23T00:35:23.528Z,16.11
2016-05-23T00:35:33.372Z,16.05
2016-05-23T00:35:43.528Z,16.05
2016-05-23T00:35:53.528Z,16.11
2016-05-23T00:36:03.544Z,16.09
2016-05-23T00:36:13.547Z,16.08
2016-05-23T00:36:23.547Z,16.11
2016-05-23T00:36:33.562Z,16.07
2016-05-23T00:36:43.562Z,16.12
2016-05-23T00:36:53.562Z,16.15
2016-05-23T00:37:03.578Z,16.12
2016-05-23T00:37:13.581Z,16.11
2016-05-23T00:37:23.597Z,16.08
2016-05-23T00:37:33.597Z,16.17
2016-05-23T00:37:43.597Z,16.14
2016-05-23T00:37:53.597Z,16.14
2016-05-23T00:38:03.612Z,16.05
2016-05-23T00:38:13.615Z,16.09
2016-05-23T00:38:23.631Z,16.15
2016-05-23T00:38:33.631Z,16.21
2016-05-23T00:38:43.631Z,16.11
2016-05-23T00:38:53.490Z,16.14
2016-05-23T00:39:03.631Z,16.11
2016-05-23T00:39:13.664Z,16.17
2016-05-23T00:39:23.649Z,16.08
2016-05-23T00:39:33.664Z,16.12
2016-05-23T00:39:43.664Z,16.11
2016-05-23T00:39:53.680Z,16.11
2016-05-23T00:40:03.524Z,16.21
2016-05-23T00:40:13.683Z,16.12
2016-05-23T00:40:23.683Z,16.08
2016-05-23T00:40:33.714Z,16.17
2016-05-23T00:40:43.698Z,16.09
2016-05-23T00:40:53.698Z,16.09
2016-05-23T00:41:03.714Z,16.14
2016-05-23T00:41:13.716Z,16.23
2016-05-23T00:41:23.716Z,16.23
2016-05-23T00:41:33.716Z,16.14
2016-05-23T00:41:43.732Z,16.24
2016-05-23T00:41:53.732Z,16.24
2016-05-23T00:42:03.732Z,16.24
2016-05-23T00:42:13.750Z,16.28
2016-05-23T00:42:23.750Z,16.17
2016-05-23T00:42:33.766Z,16.23
2016-05-23T00:42:43.766Z,16.23
2016-05-23T00:42:53.766Z,16.23
2016-05-23T00:43:03.782Z,16.2
2016-05-23T00:43:13.785Z,16.2
2016-05-23T00:43:23.785Z,16.25
2016-05-23T00:43:33.800Z,16.23
2016-05-23T00:43:43.800Z,16.28
2016-05-23T00:43:53.956Z,16.21
2016-05-23T00:44:03.816Z,16.27
2016-05-23T00:44:13.819Z,16.23
2016-05-23T00:44:23.850Z,16.24
2016-05-23T00:44:34.084Z,16.23
2016-05-23T00:44:43.834Z,16.28
2016-05-23T00:44:53.850Z,16.27
2016-05-23T00:45:03.834Z,16.21
2016-05-23T00:45:13.836Z,16.33
2016-05-23T00:45:23.852Z,16.27
2016-05-23T00:45:33.852Z,16.28
2016-05-23T00:45:43.868Z,16.3
2016-05-23T00:45:53.868Z,16.25
2016-05-23T00:46:03.868Z,16.3
2016-05-23T00:46:13.886Z,16.28
2016-05-23T00:46:23.902Z,16.17
2016-05-23T00:46:33.902Z,16.27
2016-05-23T00:46:43.902Z,16.28
2016-05-23T00:46:53.902Z,16.3
2016-05-23T00:47:03.902Z,16.27
2016-05-23T00:47:13.905Z,16.28
2016-05-23T00:47:23.921Z,16.31
2016-05-23T00:47:33.921Z,16.2
2016-05-23T00:47:43.780Z,16.3
2016-05-23T00:47:53.952Z,16.33
2016-05-23T00:48:03.936Z,16.31
2016-05-23T00:48:13.954Z,16.17
2016-05-23T00:48:23.954Z,16.3
2016-05-23T00:48:33.954Z,16.27
2016-05-23T00:48:43.954Z,16.33
2016-05-23T00:48:53.813Z,16.24
2016-05-23T00:49:03.969Z,16.3
2016-05-23T00:49:13.972Z,16.23
2016-05-23T00:49:23.988Z,16.25
2016-05-23T00:49:33.988Z,16.33
2016-05-23T00:49:43.988Z,16.28
2016-05-23T00:49:54.004Z,16.33
2016-05-23T00:50:04.004Z,16.24
2016-05-23T00:50:14.007Z,16.28
2016-05-23T00:50:24.022Z,16.25
2016-05-23T00:50:34.022Z,16.21
2016-05-23T00:50:44.022Z,16.24
2016-05-23T00:50:54.038Z,16.3
2016-05-23T00:51:04.038Z,16.27
2016-05-23T00:51:14.041Z,16.2
2016-05-23T00:51:24.072Z,16.3
2016-05-23T00:51:33.900Z,16.28
2016-05-23T00:51:44.057Z,16.31
2016-05-23T00:51:54.072Z,16.27
2016-05-23T00:52:04.072Z,16.28
2016-05-23T00:52:13.918Z,16.3
2016-05-23T00:52:24.090Z,16.24
2016-05-23T00:52:34.090Z,16.25
2016-05-23T00:52:44.105Z,16.23
2016-05-23T00:52:54.090Z,16.23
2016-05-23T00:53:04.105Z,16.31
2016-05-23T00:53:14.107Z,16.2
2016-05-23T00:53:24.123Z,16.28
2016-05-23T00:53:33.967Z,16.24
2016-05-23T00:53:43.967Z,16.21
2016-05-23T00:53:54.123Z,16.27
2016-05-23T00:54:04.139Z,16.17
2016-05-23T00:54:13.986Z,16.25
2016-05-23T00:54:24.143Z,16.25
2016-05-23T00:54:34.158Z,16.35
2016-05-23T00:54:44.174Z,16.27
2016-05-23T00:54:54.018Z,16.38
2016-05-23T00:55:04.174Z,16.28
2016-05-23T00:55:14.176Z,16.34
2016-05-23T00:55:24.176Z,16.3
2016-05-23T00:55:34.035Z,16.28
2016-05-23T00:55:44.192Z,16.34
2016-05-23T00:55:54.207Z,16.25
2016-05-23T00:56:04.207Z,16.38
2016-05-23T00:56:14.209Z,16.27
2016-05-23T00:56:24.209Z,16.3
2016-05-23T00:56:34.225Z,16.3
2016-05-23T00:56:44.225Z,16.31
2016-05-23T00:56:54.225Z,16.25
2016-05-23T00:57:04.240Z,16.33
2016-05-23T00:57:14.244Z,16.28
2016-05-23T00:57:24.244Z,16.33
2016-05-23T00:57:34.244Z,16.28
2016-05-23T00:57:44.260Z,16.28
2016-05-23T00:57:54.104Z,16.3
2016-05-23T00:58:04.276Z,16.25
2016-05-23T00:58:14.278Z,16.28
2016-05-23T00:58:24.278Z,16.3
2016-05-23T00:58:34.293Z,16.35
2016-05-23T00:58:44.293Z,16.33
2016-05-23T00:58:54.293Z,16.3
2016-05-23T00:59:04.309Z,16.34
2016-05-23T00:59:15.031Z,16.34
2016-05-23T00:59:34.374Z,16.31
2016-05-23T00:59:58.546Z,16.25
2016-05-23T01:00:03.421Z,16.31
2016-05-23T01:00:13.845Z,16.25
2016-05-23T01:00:23.314Z,16.25
2016-05-23T01:00:33.189Z,16.34
2016-05-23T01:00:43.205Z,16.35
2016-05-23T01:00:53.048Z,16.23
2016-05-23T01:01:03.205Z,16.33
2016-05-23T01:01:13.224Z,16.3
2016-05-23T01:01:23.224Z,16.33
2016-05-23T01:01:33.224Z,16.28
2016-05-23T01:01:43.240Z,16.31
2016-05-23T01:01:53.240Z,16.33
2016-05-23T01:02:03.240Z,16.38
2016-05-23T01:02:13.461Z,16.27
2016-05-23T01:02:23.257Z,16.38
2016-05-23T01:02:33.257Z,16.35
2016-05-23T01:02:43.273Z,16.34
2016-05-23T01:02:53.273Z,16.3
2016-05-23T01:03:03.132Z,16.35
2016-05-23T01:03:13.291Z,16.34
2016-05-23T01:03:23.291Z,16.27
2016-05-23T01:03:33.291Z,16.31
2016-05-23T01:03:43.291Z,16.38
2016-05-23T01:03:54.541Z,16.34
2016-05-23T01:04:03.306Z,16.41
2016-05-23T01:04:13.154Z,16.3
2016-05-23T01:04:23.326Z,16.27
2016-05-23T01:04:33.170Z,16.31
2016-05-23T01:04:43.326Z,16.3
2016-05-23T01:04:53.342Z,16.35
2016-05-23T01:05:03.342Z,16.28
2016-05-23T01:05:13.344Z,16.3
2016-05-23T01:05:23.359Z,16.27
2016-05-23T01:05:33.359Z,16.34
2016-05-23T01:05:43.359Z,16.3
2016-05-23T01:05:53.375Z,16.3
2016-05-23T01:06:03.375Z,16.28
2016-05-23T01:06:13.393Z,16.3
2016-05-23T01:06:23.378Z,16.31
2016-05-23T01:06:33.409Z,16.28
2016-05-23T01:06:43.409Z,16.27
2016-05-23T01:06:53.409Z,16.31
2016-05-23T01:07:03.409Z,16.3
2016-05-23T01:07:13.411Z,16.34
2016-05-23T01:07:23.427Z,16.38
2016-05-23T01:07:33.427Z,16.25
2016-05-23T01:07:43.286Z,16.23
2016-05-23T01:07:53.442Z,16.28
2016-05-23T01:08:03.458Z,16.38
2016-05-23T01:08:13.445Z,16.27
2016-05-23T01:08:23.461Z,16.28
2016-05-23T01:08:33.305Z,16.31
2016-05-23T01:08:43.461Z,16.2
2016-05-23T01:08:53.461Z,16.3
2016-05-23T01:09:03.477Z,16.31
2016-05-23T01:09:13.495Z,16.28
2016-05-23T01:09:23.495Z,16.28
2016-05-23T01:09:33.495Z,16.31
2016-05-23T01:09:43.495Z,16.31
2016-05-23T01:09:53.511Z,16.27
2016-05-23T01:10:03.511Z,16.31
2016-05-23T01:10:13.513Z,16.33
2016-05-23T01:10:23.513Z,16.23
2016-05-23T01:10:33.528Z,16.3
2016-05-23T01:10:43.544Z,16.31
2016-05-23T01:10:53.528Z,16.33
2016-05-23T01:11:03.544Z,16.33
2016-05-23T01:11:13.547Z,16.25
2016-05-23T01:11:23.563Z,16.25
2016-05-23T01:11:33.563Z,16.28
2016-05-23T01:11:43.578Z,16.23
2016-05-23T01:11:53.563Z,16.31
2016-05-23T01:12:03.578Z,16.28
2016-05-23T01:12:13.613Z,16.27
2016-05-23T01:12:23.581Z,16.34
2016-05-23T01:12:33.597Z,16.25
2016-05-23T01:12:43.597Z,16.35
2016-05-23T01:12:53.613Z,16.27
2016-05-23T01:13:03.456Z,16.28
2016-05-23T01:13:13.459Z,16.31
2016-05-23T01:13:23.616Z,16.34
2016-05-23T01:13:33.631Z,16.28
2016-05-23T01:13:43.475Z,16.31
2016-05-23T01:13:54.319Z,16.28
2016-05-23T01:14:03.866Z,16.27
2016-05-23T01:14:13.649Z,16.34
2016-05-23T01:14:23.664Z,16.25
2016-05-23T01:14:33.664Z,16.3
2016-05-23T01:14:43.836Z,16.23
2016-05-23T01:14:53.508Z,16.27
2016-05-23T01:15:03.508Z,16.33
2016-05-23T01:15:13.527Z,16.25
2016-05-23T01:15:23.683Z,16.33
2016-05-23T01:15:33.699Z,16.34
2016-05-23T01:15:43.699Z,16.24
2016-05-23T01:15:53.699Z,16.3
2016-05-23T01:16:03.714Z,16.28
2016-05-23T01:16:13.717Z,16.33
2016-05-23T01:16:23.717Z,16.31
2016-05-23T01:16:33.733Z,16.27
2016-05-23T01:16:43.577Z,16.25
2016-05-23T01:16:53.733Z,16.28
2016-05-23T01:17:03.749Z,16.35
2016-05-23T01:17:13.751Z,16.35
2016-05-23T01:17:23.751Z,16.33
2016-05-23T01:17:33.766Z,16.28
2016-05-23T01:17:43.766Z,16.31
2016-05-23T01:17:53.766Z,16.33
2016-05-23T01:18:03.782Z,16.31
2016-05-23T01:18:13.785Z,16.24
2016-05-23T01:18:23.629Z,16.2
2016-05-23T01:18:33.800Z,16.25
2016-05-23T01:18:43.800Z,16.2
2016-05-23T01:18:53.644Z,16.28
2016-05-23T01:19:03.800Z,16.3
2016-05-23T01:19:13.819Z,16.28
2016-05-23T01:19:23.819Z,16.33
2016-05-23T01:19:33.835Z,16.27
2016-05-23T01:19:43.835Z,16.3
2016-05-23T01:19:53.850Z,16.3
2016-05-23T01:20:03.835Z,16.24
2016-05-23T01:20:13.853Z,16.34
2016-05-23T01:20:23.853Z,16.31
2016-05-23T01:20:33.853Z,16.24
2016-05-23T01:20:43.869Z,16.24
2016-05-23T01:20:53.713Z,16.25
2016-05-23T01:21:03.885Z,16.27
2016-05-23T01:21:13.871Z,16.21
2016-05-23T01:21:23.887Z,16.31
2016-05-23T01:21:33.902Z,16.35
2016-05-23T01:21:43.887Z,16.28
2016-05-23T01:21:53.902Z,16.24
2016-05-23T01:22:03.902Z,16.3
2016-05-23T01:22:13.921Z,16.31
2016-05-23T01:22:23.921Z,16.34
2016-05-23T01:22:33.936Z,16.28
2016-05-23T01:22:43.936Z,16.28
2016-05-23T01:22:53.968Z,16.3
2016-05-23T01:23:03.936Z,16.34
2016-05-23T01:23:13.938Z,16.31
2016-05-23T01:23:23.954Z,16.33
2016-05-23T01:23:33.954Z,16.28
2016-05-23T01:23:43.970Z,16.3
2016-05-23T01:23:53.970Z,16.23
2016-05-23T01:24:03.845Z,16.28
2016-05-23T01:24:13.973Z,16.23
2016-05-23T01:24:24.004Z,16.23
2016-05-23T01:24:33.988Z,16.28
2016-05-23T01:24:43.988Z,16.24
2016-05-23T01:24:54.004Z,16.27
2016-05-23T01:25:04.004Z,16.25
2016-05-23T01:25:14.085Z,16.25
2016-05-23T01:25:24.023Z,16.31
2016-05-23T01:25:34.023Z,16.33
2016-05-23T01:25:44.054Z,16.31
2016-05-23T01:25:54.038Z,16.27
2016-05-23T01:26:04.038Z,16.31
2016-05-23T01:26:14.040Z,16.3
2016-05-23T01:26:24.056Z,16.24
2016-05-23T01:26:34.056Z,16.31
2016-05-23T01:26:44.071Z,16.3
2016-05-23T01:26:54.071Z,16.28
2016-05-23T01:27:04.071Z,16.27
2016-05-23T01:27:14.075Z,16.31
2016-05-23T01:27:23.935Z,16.24
2016-05-23T01:27:34.091Z,16.27
2016-05-23T01:27:44.138Z,16.3
2016-05-23T01:27:53.950Z,16.28
2016-05-23T01:28:04.122Z,16.23
2016-05-23T01:28:14.109Z,16.25
2016-05-23T01:28:24.124Z,16.3
2016-05-23T01:28:34.124Z,16.23
2016-05-23T01:28:44.124Z,16.28
2016-05-23T01:28:53.984Z,16.24
2016-05-23T01:29:04.202Z,16.21
2016-05-23T01:29:14.158Z,16.25
2016-05-23T01:29:24.158Z,16.33
2016-05-23T01:29:34.158Z,16.31
2016-05-23T01:29:44.158Z,16.23
2016-05-23T01:29:54.064Z,16.3
2016-05-23T01:30:04.173Z,16.3
2016-05-23T01:30:14.176Z,16.27
2016-05-23T01:30:24.207Z,16.24
2016-05-23T01:30:34.192Z,16.3
2016-05-23T01:30:44.192Z,16.25
2016-05-23T01:30:54.207Z,16.28
2016-05-23T01:31:04.207Z,16.24
2016-05-23T01:31:14.226Z,16.27
2016-05-23T01:31:24.226Z,16.25
2016-05-23T01:31:34.070Z,16.24
2016-05-23T01:31:44.226Z,16.3
2016-05-23T01:31:54.242Z,16.21
2016-05-23T01:32:04.242Z,16.3
2016-05-23T01:32:14.245Z,16.2
2016-05-23T01:32:24.260Z,16.21
2016-05-23T01:32:34.104Z,16.21
2016-05-23T01:32:44.260Z,16.09
2016-05-23T01:32:54.276Z,16.17
2016-05-23T01:33:04.276Z,16.17
2016-05-23T01:33:14.122Z,16.09
2016-05-23T01:33:24.278Z,16.17
2016-05-23T01:33:34.294Z,16.11
2016-05-23T01:33:44.137Z,16.11
2016-05-23T01:33:54.294Z,16.12
2016-05-23T01:34:04.309Z,16.17
2016-05-23T01:34:14.312Z,16.08
2016-05-23T01:34:24.328Z,16.17
2016-05-23T01:34:34.328Z,16.11
2016-05-23T01:34:44.172Z,16.15
2016-05-23T01:34:54.328Z,16.12
2016-05-23T01:35:04.187Z,16.11
2016-05-23T01:35:14.346Z,16.08
2016-05-23T01:35:24.346Z,16.14
2016-05-23T01:35:34.346Z,16.23
2016-05-23T01:35:44.362Z,16.12
2016-05-23T01:35:54.362Z,16.14
2016-05-23T01:36:04.362Z,16.12
2016-05-23T01:36:14.380Z,16.12
2016-05-23T01:36:24.380Z,16.15
2016-05-23T01:36:34.395Z,16.12
2016-05-23T01:36:44.395Z,16.12
2016-05-23T01:36:54.395Z,16.15
2016-05-23T01:37:04.411Z,16.2
2016-05-23T01:37:14.414Z,16.12
2016-05-23T01:37:24.430Z,16.12
2016-05-23T01:37:34.430Z,16.21
2016-05-23T01:37:44.430Z,16.17
2016-05-23T01:37:54.430Z,16.15
2016-05-23T01:38:04.445Z,16.21
2016-05-23T01:38:14.291Z,16.14
2016-05-23T01:38:24.447Z,16.12
2016-05-23T01:38:34.463Z,16.12
2016-05-23T01:38:44.463Z,16.08
2016-05-23T01:38:54.463Z,16.12
2016-05-23T01:39:04.307Z,16.12
2016-05-23T01:39:14.482Z,16.17
2016-05-23T01:39:24.482Z,16.2
2016-05-23T01:39:34.482Z,16.08
2016-05-23T01:39:44.498Z,16.14
2016-05-23T01:39:54.498Z,16.08
2016-05-23T01:40:04.514Z,16.05
2016-05-23T01:40:14.531Z,16.11
2016-05-23T01:40:24.531Z,16.14
2016-05-23T01:40:34.516Z,16.08
2016-05-23T01:40:44.531Z,16.21
2016-05-23T01:40:54.375Z,16.15
2016-05-23T01:41:04.531Z,16.21
2016-05-23T01:41:14.550Z,16.12
2016-05-23T01:41:24.550Z,16.17
2016-05-23T01:41:34.550Z,16.2
2016-05-23T01:41:44.566Z,16.15
2016-05-23T01:41:54.566Z,16.21
2016-05-23T01:42:04.581Z,16.21
2016-05-23T01:42:14.584Z,16.14
2016-05-23T01:42:24.428Z,16.12
2016-05-23T01:42:34.584Z,16.12
2016-05-23T01:42:44.600Z,16.14
2016-05-23T01:42:54.600Z,16.12
2016-05-23T01:43:04.600Z,16.14
2016-05-23T01:43:14.617Z,16.15
2016-05-23T01:43:24.617Z,16.15
2016-05-23T01:43:34.617Z,16.2
2016-05-23T01:43:44.617Z,16.14
2016-05-23T01:43:55.039Z,16.05
2016-05-23T01:44:04.649Z,16.11
2016-05-23T01:44:14.495Z,16.15
2016-05-23T01:44:25.089Z,16.09
2016-05-23T01:44:34.667Z,16.11
2016-05-23T01:44:44.511Z,16.01
2016-05-23T01:44:54.699Z,16.09
2016-05-23T01:45:04.667Z,16.08
2016-05-23T01:45:14.530Z,16.05
2016-05-23T01:45:24.530Z,16.08
2016-05-23T01:45:34.686Z,16.04
2016-05-23T01:45:44.702Z,16.05
2016-05-23T01:45:54.717Z,16.05
2016-05-23T01:46:04.702Z,16.09
2016-05-23T01:46:14.704Z,16.04
2016-05-23T01:46:24.719Z,16
2016-05-23T01:46:34.719Z,16.08
2016-05-23T01:46:44.579Z,16.07
2016-05-23T01:46:54.735Z,16.08
2016-05-23T01:47:04.735Z,16.05
2016-05-23T01:47:14.738Z,16.02
2016-05-23T01:47:24.753Z,16
2016-05-23T01:47:34.753Z,16.04
2016-05-23T01:47:44.753Z,16.05
2016-05-23T01:47:54.769Z,16.08
2016-05-23T01:48:04.769Z,16.05
2016-05-23T01:48:14.772Z,16.05
2016-05-23T01:48:24.788Z,16.01
2016-05-23T01:48:34.788Z,16.08
2016-05-23T01:48:44.788Z,16.01
2016-05-23T01:48:54.788Z,16.02
2016-05-23T01:49:04.803Z,16
2016-05-23T01:49:14.805Z,15.97
2016-05-23T01:49:24.665Z,16.09
2016-05-23T01:49:34.821Z,16.07
2016-05-23T01:49:44.821Z,16.14
2016-05-23T01:49:54.837Z,15.97
2016-05-23T01:50:04.837Z,16
2016-05-23T01:50:14.840Z,16.08
2016-05-23T01:50:24.840Z,16.01
2016-05-23T01:50:34.855Z,16
2016-05-23T01:50:44.855Z,16
2016-05-23T01:50:54.871Z,16.01
2016-05-23T01:51:04.871Z,15.97
2016-05-23T01:51:14.889Z,15.94
2016-05-23T01:51:24.733Z,16.08
2016-05-23T01:51:34.889Z,16.02
2016-05-23T01:51:44.889Z,16
2016-05-23T01:51:54.889Z,15.97
2016-05-23T01:52:04.905Z,16
2016-05-23T01:52:14.923Z,15.97
2016-05-23T01:52:24.923Z,16
2016-05-23T01:52:34.923Z,15.96
2016-05-23T01:52:44.923Z,16.04
2016-05-23T01:52:54.923Z,15.96
2016-05-23T01:53:04.938Z,15.94
2016-05-23T01:53:14.941Z,16.09
2016-05-23T01:53:24.941Z,15.96
2016-05-23T01:53:34.957Z,15.96
2016-05-23T01:53:44.957Z,16.02
2016-05-23T01:53:54.973Z,16.02
2016-05-23T01:54:04.816Z,16.05
2016-05-23T01:54:14.976Z,16.02
2016-05-23T01:54:24.976Z,15.96
2016-05-23T01:54:34.991Z,16.01
2016-05-23T01:54:44.991Z,16.01
2016-05-23T01:54:54.991Z,16.04
2016-05-23T01:55:04.851Z,16.07
2016-05-23T01:55:15.025Z,16
2016-05-23T01:55:25.010Z,15.97
2016-05-23T01:55:34.869Z,16.02
2016-05-23T01:55:45.041Z,16.01
2016-05-23T01:55:55.025Z,16.05
2016-05-23T01:56:05.041Z,16.01
2016-05-23T01:56:15.043Z,16.01
2016-05-23T01:56:25.059Z,15.97
2016-05-23T01:56:34.902Z,16.02
2016-05-23T01:56:45.059Z,16.02
2016-05-23T01:56:55.059Z,15.97
2016-05-23T01:57:05.074Z,15.96
2016-05-23T01:57:15.077Z,16.04
2016-05-23T01:57:24.921Z,15.97
2016-05-23T01:57:35.077Z,15.96
2016-05-23T01:57:44.937Z,15.96
2016-05-23T01:57:55.093Z,16
2016-05-23T01:58:05.109Z,16.05
2016-05-23T01:58:15.112Z,16.04
2016-05-23T01:58:25.112Z,16
2016-05-23T01:58:35.127Z,15.96
2016-05-23T01:58:45.127Z,16.01
2016-05-23T01:58:55.330Z,16.04
2016-05-23T01:59:05.596Z,16.04
2016-05-23T01:59:15.145Z,15.97
2016-05-23T01:59:25.864Z,16.02
2016-05-23T01:59:35.004Z,16.01
2016-05-23T01:59:45.160Z,15.97
2016-05-23T01:59:55.176Z,15.94
2016-05-23T02:00:05.160Z,15.97
2016-05-23T02:00:15.179Z,16.04
2016-05-23T02:00:25.179Z,16.01
2016-05-23T02:00:35.038Z,15.97
2016-05-23T02:00:45.038Z,15.97
2016-05-23T02:00:55.195Z,16.02
2016-05-23T02:01:05.210Z,16.04
2016-05-23T02:01:15.212Z,16.08
2016-05-23T02:01:25.212Z,15.96
2016-05-23T02:01:35.212Z,15.94
2016-05-23T02:01:45.228Z,16.05
2016-05-23T02:01:55.228Z,16.07
2016-05-23T02:02:05.244Z,16.05
2016-05-23T02:02:15.248Z,16.05
2016-05-23T02:02:25.248Z,16.02
2016-05-23T02:02:35.091Z,16.02
2016-05-23T02:02:45.263Z,16.08
2016-05-23T02:02:55.263Z,16.07
2016-05-23T02:03:05.263Z,16.02
2016-05-23T02:03:15.281Z,15.97
2016-05-23T02:03:25.281Z,16.04
2016-05-23T02:03:35.281Z,16
2016-05-23T02:03:45.296Z,16
2016-05-23T02:03:55.296Z,16.02
2016-05-23T02:04:05.312Z,16.05
2016-05-23T02:04:15.298Z,16.04
2016-05-23T02:04:25.314Z,16.01
2016-05-23T02:04:35.314Z,16.01
2016-05-23T02:04:45.330Z,15.96
2016-05-23T02:04:55.330Z,16.05
2016-05-23T02:05:05.345Z,16.05
2016-05-23T02:05:15.334Z,16.04
2016-05-23T02:05:25.349Z,16.02
2016-05-23T02:05:35.209Z,16.02
2016-05-23T02:05:45.349Z,16.05
2016-05-23T02:05:55.365Z,16.02
2016-05-23T02:06:05.381Z,15.93
2016-05-23T02:06:15.367Z,16.01
2016-05-23T02:06:25.383Z,16.08
2016-05-23T02:06:35.383Z,16.01
2016-05-23T02:06:45.383Z,16.04
2016-05-23T02:06:55.398Z,16.04
2016-05-23T02:07:05.398Z,16.01
2016-05-23T02:07:15.416Z,16.02
2016-05-23T02:07:25.416Z,16.04
2016-05-23T02:07:35.416Z,15.96
2016-05-23T02:07:45.416Z,16.01
2016-05-23T02:07:55.275Z,15.96
2016-05-23T02:08:05.431Z,15.97
2016-05-23T02:08:15.435Z,16.04
2016-05-23T02:08:25.435Z,15.94
2016-05-23T02:08:35.451Z,16
2016-05-23T02:08:45.451Z,16.02
2016-05-23T02:08:55.467Z,16
2016-05-23T02:09:05.310Z,16.01
2016-05-23T02:09:15.485Z,16.02
2016-05-23T02:09:25.485Z,16
2016-05-23T02:09:35.610Z,15.92
2016-05-23T02:09:45.610Z,16
2016-05-23T02:09:55.610Z,15.92
2016-05-23T02:10:05.657Z,15.97
2016-05-23T02:10:15.628Z,15.92